Terminal Aerodrome Forecast
Issued by NWS

Home | Current Version | Previous Version | Text Only | Print | Product List | Glossary On
Versions: 1 2 3 4 5 6 7 8 9 10 11 12 13 14 15 16 17 18 19 20 21 22 23 24
000
FTAK31 PANC 221140
TAFAHO
TAF
PAHO 221140Z 2212/2312 03005KT P6SM SCT045 BKN070
     FM222100 VRB05KT P6SM -SHSN BKN045
     FM230100 22004KT P6SM SCT050
     FM230600 09004KT 5SM -SN BR OVC025
     FM231100 08006KT P6SM VCSH FEW025 BKN080=

USA.gov is the U.S. government's official web portal to all federal, state and local government web resources and services.